Historique des mesures à Cassis (13260), France
Quotidien Résumé Fevrier 8, 2018 Unités:  Métrique/US    US   Métrique
« Précédent (Jour)
Suivant (Jour) »
Quotidien Hebdomadaire Mensuel Annuel Période au choix
  Maximum: Minimum: Moyenne:
Température: 32 °F /  TemperatureC °C 36.3 °F /  2.4 °C 39.7 °F /  4.3 °C
Point de rosée: 32 °F /  DewpointC °C 25.3 °F /  -3.7 °C 28.9 °F /  -1.7 °C
Humidité: Humidity % 59 % 61 %
Vitesse du vent: WindSpeedKMH mph /  0 km/h - 9.3 mph /  15 km/h
Rafales: WindSpeedGustKMH mph /  0 km/h - -
Vent:- - West
Pression: 0 in /  PressurehPa hPa 29.8 in /  1010.4 hPa -
Précipitations: 0.0 in /  0 mm    
Historical Graphs
 
 
Mesures pour : Fevrier 8, 2018
Heure Temperature Point de rosée Pression Vent Vitesse du vent Rafales Humidité Pluie (par heure)
32 °F /  TemperatureC °C 32 °F /  DewpointC °C 0 in /  PressurehPa hPa Calm     Humidity % HourlyPrecipMM in /  0 mm
00:12 37.2 °F /  2.9 °C 25.3 °F /  -3.7 °C 29.8 in /  1010.4 hPa NNW 16.3 mph /  26.2 km/h 19.1 mph /  30.7 km/h 62 % 0.0 in /  0 mm
01:12 37.2 °F /  2.9 °C 25.9 °F /  -3.4 °C 29.8 in /  1010.4 hPa NNW 11.1 mph /  17.9 km/h 17.2 mph /  27.7 km/h 63 % 0.0 in /  0 mm
02:12 37.2 °F /  2.9 °C 25.3 °F /  -3.7 °C 29.8 in /  1010.7 hPa West 13.4 mph /  21.6 km/h 22.7 mph /  36.5 km/h 62 % 0.0 in /  0 mm
03:12 37.2 °F /  2.9 °C 25.9 °F /  -3.4 °C 29.8 in /  1010.7 hPa WNW 13.0 mph /  20.9 km/h 34.1 mph /  54.9 km/h 63 % 0.0 in /  0 mm
04:12 36.9 °F /  2.7 °C 26.2 °F /  -3.2 °C 29.8 in /  1010.4 hPa WNW 21.9 mph /  35.2 km/h 21.9 mph /  35.2 km/h 65 % 0.0 in /  0 mm
05:12 36.7 °F /  2.6 °C 26.4 °F /  -3.1 °C 29.8 in /  1010.7 hPa NW 12.2 mph /  19.6 km/h 24.8 mph /  39.9 km/h 66 % 0.0 in /  0 mm
06:12 36.7 °F /  2.6 °C 26.8 °F /  -2.9 °C 29.9 in /  1011.4 hPa WNW 4.0 mph /  6.4 km/h 7.2 mph /  11.6 km/h 67 % 0.0 in /  0 mm
07:12 36.3 °F /  2.4 °C 26.8 °F /  -2.9 °C 29.9 in /  1011.1 hPa WNW 13.4 mph /  21.6 km/h 13.4 mph /  21.6 km/h 68 % 0.0 in /  0 mm
08:12 36.5 °F /  2.5 °C 27.3 °F /  -2.6 °C 29.9 in /  1012.1 hPa WNW 7.2 mph /  11.6 km/h 7.6 mph /  12.2 km/h 69 % 0.0 in /  0 mm
09:12 37.2 °F /  2.9 °C 28 °F /  -2.2 °C 29.9 in /  1012.4 hPa West 6.1 mph /  9.8 km/h 6.8 mph /  10.9 km/h 69 % 0.0 in /  0 mm
10:12 38.3 °F /  3.5 °C 28.9 °F /  -1.7 °C 29.9 in /  1012.4 hPa NNW 21.6 mph /  34.8 km/h 21.6 mph /  34.8 km/h 69 % 0.0 in /  0 mm
11:12 39.9 °F /  4.4 °C 29.8 °F /  -1.2 °C 29.9 in /  1013.1 hPa WNW 14.0 mph /  22.5 km/h 14.0 mph /  22.5 km/h 67 % 0.0 in /  0 mm
12:12 41.7 °F /  5.4 °C 30.4 °F /  -0.9 °C 29.9 in /  1013.1 hPa NW 6.1 mph /  9.8 km/h 9.3 mph /  15 km/h 64 % 0.0 in /  0 mm
13:12 43.3 °F /  6.3 °C 31.5 °F /  -0.3 °C 29.9 in /  1012.4 hPa NW 4.0 mph /  6.4 km/h 18.0 mph /  29 km/h 63 % 0.0 in /  0 mm
14:12 44.6 °F /  7.0 °C 31.6 °F /  -0.2 °C 29.9 in /  1012.1 hPa WNW 24.1 mph /  38.8 km/h 24.1 mph /  38.8 km/h 60 % 0.0 in /  0 mm
15:12 46 °F /  7.8 °C 32.5 °F /  0.3 °C 29.9 in /  1011.7 hPa NNW 14.3 mph /  23 km/h 26.2 mph /  42.2 km/h 59 % 0.0 in /  0 mm
16:12 46 °F /  7.8 °C 32.5 °F /  0.3 °C 29.9 in /  1012.4 hPa North 3.5 mph /  5.6 km/h 19.1 mph /  30.7 km/h 59 % 0.0 in /  0 mm
17:12 45 °F /  7.2 °C 32.2 °F /  0.1 °C 29.9 in /  1012.8 hPa North 7.6 mph /  12.2 km/h 7.9 mph /  12.7 km/h 60 % 0.0 in /  0 mm
18:12 43 °F /  6.1 °C 30.7 °F /  -0.7 °C 29.9 in /  1013.1 hPa NNW 5.0 mph /  8 km/h 9.0 mph /  14.5 km/h 62 % 0.0 in /  0 mm
19:12 42.1 °F /  5.6 °C 30 °F /  -1.1 °C 29.9 in /  1014.1 hPa NNW 7.2 mph /  11.6 km/h 12.2 mph /  19.6 km/h 62 % 0.0 in /  0 mm
20:12 42.4 °F /  5.8 °C 29.1 °F /  -1.6 °C 29.9 in /  1014.1 hPa West 3.2 mph /  5.1 km/h 6.1 mph /  9.8 km/h 59 % 0.0 in /  0 mm
21:12 41.2 °F /  5.1 °C 29.8 °F /  -1.2 °C 30 in /  1014.4 hPa SE 2.1 mph /  3.4 km/h 2.1 mph /  3.4 km/h 64 % 0.0 in /  0 mm
22:12 40.6 °F /  4.8 °C 29.8 °F /  -1.2 °C 30 in /  1014.4 hPa Calm     65 % 0.0 in /  0 mm
23:12 39 °F /  3.9 °C 28.9 °F /  -1.7 °C 29.9 in /  1014.1 hPa Calm     67 % 0.0 in /  0 mm
Observations météo à CASSIS
WU-History script by Weather Underground - 1 mb